Time;durP1;ratioP1;P1;durP2;ratioP2;P2;SDS_P1;SDS_P2;PMS_P1;PMS_P2;Temp;Humidity;BMP_temperature;BMP_pressure;BME280_temperature;BME280_humidity;BME280_pressure;Samples;Min_cycle;Max_cycle;Signal;HPM_P1;HPM_P2
2021/09/02 00:03:43;;;;;;;1999.90;999.90;;;;;;;15.64;77.19;102123.66;15806320;28;20455;-58
2021/09/02 00:11:20;;;;;;;1999.90;999.90;;;;;;;15.57;77.04;102121.31;15810626;28;20472;-57
2021/09/02 00:18:54;;;;;;;1999.90;999.90;;;;;;;15.57;77.52;102129.75;15809085;28;20044;-60
2021/09/02 00:26:26;;;;;;;1999.90;999.90;;;;;;;15.62;77.36;102137.22;15807732;28;20072;-58
2021/09/02 00:34:00;;;;;;;1999.90;999.90;;;;;;;15.54;78.25;102134.06;15773148;28;20041;-58
2021/09/02 00:41:32;;;;;;;1999.90;999.90;;;;;;;15.51;78.31;102140.34;15747390;28;20079;-58
2021/09/02 00:49:05;;;;;;;1999.90;999.90;;;;;;;15.52;78.67;102130.75;15745550;28;20046;-61
2021/09/02 00:56:38;;;;;;;1999.90;999.90;;;;;;;15.62;78.00;102149.31;15743122;28;20084;-58
2021/09/02 01:04:11;;;;;;;1999.90;999.90;;;;;;;15.65;78.82;102148.66;15742855;28;20135;-58
2021/09/02 01:11:43;;;;;;;1999.90;999.90;;;;;;;15.56;78.55;102147.81;15725211;28;20072;-58
2021/09/02 01:19:18;;;;;;;1999.90;999.90;;;;;;;15.50;78.67;102147.13;15742427;28;20090;-59
2021/09/02 01:26:52;;;;;;;1999.90;999.90;;;;;;;15.51;77.26;102151.59;15740379;28;20072;-57
2021/09/02 01:34:24;;;;;;;1999.90;999.90;;;;;;;15.26;77.38;102152.44;15761609;28;20040;-58
2021/09/02 01:42:05;;;;;;;1999.90;999.90;;;;;;;15.19;77.67;102150.13;15803823;28;20048;-58
2021/09/02 01:49:37;;;;;;;1999.90;999.90;;;;;;;15.14;76.82;102157.91;15803717;28;20093;-57
2021/09/02 01:57:11;;;;;;;1999.90;999.90;;;;;;;15.14;76.80;102155.09;15803193;28;20040;-58
2021/09/02 02:04:43;;;;;;;1999.90;999.90;;;;;;;15.01;77.32;102157.72;15802824;28;20105;-58
2021/09/02 02:12:17;;;;;;;1999.90;999.90;;;;;;;15.10;78.11;102162.50;15802501;28;20128;-61
2021/09/02 02:19:49;;;;;;;1999.90;999.90;;;;;;;15.24;78.49;102157.56;15802426;28;20089;-58
2021/09/02 02:27:23;;;;;;;1999.90;999.90;;;;;;;15.18;78.60;102151.28;15800044;28;20054;-60
2021/09/02 02:34:56;;;;;;;1999.90;999.90;;;;;;;15.34;78.38;102148.00;15759075;28;20064;-59
2021/09/02 02:42:31;;;;;;;1999.90;999.90;;;;;;;15.29;78.44;102138.53;15737478;28;20040;-60
2021/09/02 02:50:05;;;;;;;1999.90;999.90;;;;;;;15.21;78.23;102136.53;15738011;28;20122;-59
2021/09/02 02:57:38;;;;;;;1999.90;999.90;;;;;;;15.15;78.03;102137.88;15736853;28;20071;-59
2021/09/02 03:05:11;;;;;;;1999.90;999.90;;;;;;;15.07;77.92;102133.06;15737045;28;20501;-57
2021/09/02 03:12:44;;;;;;;1999.90;999.90;;;;;;;15.01;77.85;102142.84;15736312;28;20490;-62
2021/09/02 03:20:23;;;;;;;1999.90;999.90;;;;;;;15.19;78.13;102140.84;15737049;28;20087;-62
2021/09/02 03:27:56;;;;;;;1999.90;999.90;;;;;;;15.10;78.59;102149.28;15736785;28;20154;-59
2021/09/02 03:35:29;;;;;;;1999.90;999.90;;;;;;;15.14;78.51;102149.47;15789703;28;20052;-60
2021/09/02 03:43:03;;;;;;;1999.90;999.90;;;;;;;15.13;79.39;102153.44;15812489;28;20051;-58
2021/09/02 03:50:36;;;;;;;1999.90;999.90;;;;;;;15.13;79.23;102153.44;15809953;28;20055;-60
2021/09/02 03:58:10;;;;;;;1999.90;999.90;;;;;;;15.19;79.93;102157.72;15809384;28;20094;-56
2021/09/02 04:05:42;;;;;;;1999.90;999.90;;;;;;;15.38;79.37;102160.22;15808156;28;20044;-56
2021/09/02 04:13:16;;;;;;;1999.90;999.90;;;;;;;15.42;80.01;102162.03;15809672;28;20059;-58
2021/09/02 04:20:48;;;;;;;1999.90;999.90;;;;;;;15.58;80.50;102151.09;15809292;28;20044;-60
2021/09/02 04:28:21;;;;;;;1999.90;999.90;;;;;;;15.84;79.78;102157.56;15807028;28;20093;-62
2021/09/02 04:35:54;;;;;;;1999.90;999.90;;;;;;;15.89;80.17;102159.38;15758116;28;20053;-60
2021/09/02 04:43:30;;;;;;;1999.90;999.90;;;;;;;16.01;80.09;102165.13;15743726;28;20052;-61
2021/09/02 04:51:05;;;;;;;1999.90;999.90;;;;;;;15.93;79.90;102163.16;15744094;28;20124;-57
2021/09/02 04:58:39;;;;;;;1999.90;999.90;;;;;;;16.01;80.10;102187.66;15743603;28;20047;-58
2021/09/02 05:06:11;;;;;;;1999.90;999.90;;;;;;;15.94;80.08;102178.88;15743856;28;20052;-64
2021/09/02 05:13:48;;;;;;;1999.90;999.90;;;;;;;16.02;79.28;102191.31;15742964;28;20090;-56
2021/09/02 05:21:20;;;;;;;1999.90;999.90;;;;;;;16.10;79.28;102196.09;15742853;28;20091;-58
2021/09/02 05:28:56;;;;;;;1999.90;999.90;;;;;;;16.43;78.61;102201.94;15739830;28;20048;-60
2021/09/02 05:36:28;;;;;;;1999.90;999.90;;;;;;;16.62;77.79;102204.38;15797547;28;20046;-59
2021/09/02 05:44:02;;;;;;;1999.90;999.90;;;;;;;16.89;77.47;102209.56;15802958;28;20048;-58
2021/09/02 05:51:34;;;;;;;1999.90;999.90;;;;;;;17.11;76.75;102208.44;15804234;28;20044;-58
2021/09/02 05:59:08;;;;;;;1999.90;999.90;;;;;;;17.42;76.46;102201.59;15802194;28;20439;-60
2021/09/02 06:06:40;;;;;;;1999.90;999.90;;;;;;;17.77;76.13;102211.44;15801759;28;20115;-58
2021/09/02 06:14:14;;;;;;;1999.90;999.90;;;;;;;18.13;74.80;102212.72;15801497;28;20048;-57
2021/09/02 06:21:46;;;;;;;1999.90;999.90;;;;;;;18.36;74.48;102221.66;15801174;28;20040;-58
2021/09/02 06:29:20;;;;;;;1999.90;999.90;;;;;;;18.62;74.38;102233.44;15802006;28;20097;-56
2021/09/02 06:36:52;;;;;;;1999.90;999.90;;;;;;;18.97;73.22;102241.53;15744176;28;20036;-58
2021/09/02 06:44:26;;;;;;;1999.90;999.90;;;;;;;18.93;73.09;102247.06;15739988;28;20418;-58
2021/09/02 06:51:58;;;;;;;1999.90;999.90;;;;;;;19.14;73.63;102254.59;15738550;28;20078;-61
2021/09/02 06:59:32;;;;;;;1999.90;999.90;;;;;;;19.13;73.06;102250.94;15738395;28;20052;-60
2021/09/02 07:07:04;;;;;;;1999.90;999.90;;;;;;;19.47;72.73;102266.56;15720298;28;20052;-55
2021/09/02 07:14:38;;;;;;;1999.90;999.90;;;;;;;20.02;71.17;102272.72;15749463;28;20139;-62
2021/09/02 07:22:10;;;;;;;1999.90;999.90;;;;;;;20.78;67.95;102279.28;15749133;28;20040;-55
2021/09/02 07:29:44;;;;;;;1999.90;999.90;;;;;;;19.52;71.43;102291.81;15749072;28;20472;-55
2021/09/02 07:37:17;;;;;;;1999.90;999.90;;;;;;;19.41;70.69;102290.66;15810063;28;20044;-58
2021/09/02 07:44:50;;;;;;;1999.90;999.90;;;;;;;19.32;71.60;102298.44;15793438;28;20067;-55
2021/09/02 07:52:23;;;;;;;1999.90;999.90;;;;;;;19.57;71.59;102305.75;15809110;28;20048;-58
2021/09/02 07:59:56;;;;;;;1999.90;999.90;;;;;;;19.44;71.51;102303.28;15809323;28;20046;-59
2021/09/02 08:07:29;;;;;;;1999.90;999.90;;;;;;;19.03;72.94;102311.66;15808443;28;20040;-58
2021/09/02 08:15:02;;;;;;;1999.90;999.90;;;;;;;19.45;72.00;102319.91;15808467;28;20032;-58
2021/09/02 08:22:35;;;;;;;1999.90;999.90;;;;;;;19.19;72.87;102325.13;15806698;28;20074;-58
2021/09/02 08:30:10;;;;;;;1999.90;999.90;;;;;;;19.72;70.80;102323.22;15806379;28;20053;-60
2021/09/02 08:37:43;;;;;;;1999.90;999.90;;;;;;;20.07;69.67;102324.28;15727823;28;20053;-58
2021/09/02 08:45:16;;;;;;;1999.90;999.90;;;;;;;21.07;65.58;102335.59;15768744;28;20040;-57
2021/09/02 08:52:49;;;;;;;1999.90;999.90;;;;;;;20.99;65.28;102345.94;15768450;28;20041;-61
2021/09/02 09:00:25;;;;;;;1999.90;999.90;;;;;;;21.86;64.17;102355.38;15776745;28;20489;-60
2021/09/02 09:07:57;;;;;;;1999.90;999.90;;;;;;;21.71;64.32;102359.09;15805130;28;20040;-61
2021/09/02 09:15:33;;;;;;;1999.90;999.90;;;;;;;21.03;65.55;102346.00;15789693;28;20048;-61
2021/09/02 09:23:05;;;;;;;1999.90;999.90;;;;;;;21.84;62.82;102347.22;15741759;28;20057;-57
2021/09/02 09:30:39;;;;;;;1999.90;999.90;;;;;;;22.40;62.12;102354.53;15741915;28;20106;-57
2021/09/02 09:38:15;;;;;;;1999.90;999.90;;;;;;;22.23;62.56;102360.69;15741965;28;20672;-58
2021/09/02 09:45:50;;;;;;;1999.90;999.90;;;;;;;23.10;59.09;102359.16;15742037;28;20058;-60
2021/09/02 09:53:27;;;;;;;1999.90;999.90;;;;;;;23.95;57.75;102359.72;15787419;28;20093;-57
2021/09/02 10:01:03;;;;;;;1999.90;999.90;;;;;;;23.75;59.54;102351.28;15801922;28;20135;-58
2021/09/02 10:08:38;;;;;;;1999.90;999.90;;;;;;;24.81;54.85;102359.63;15802089;28;20089;-59
2021/09/02 10:16:11;;;;;;;1999.90;999.90;;;;;;;24.90;55.49;102348.66;15803281;28;20052;-58
2021/09/02 10:23:44;;;;;;;1999.90;999.90;;;;;;;25.30;54.82;102358.44;15803665;28;20036;-57
2021/09/02 10:31:24;;;;;;;1999.90;999.90;;;;;;;25.27;53.28;102350.69;15801041;28;20044;-56
2021/09/02 10:38:57;;;;;;;1999.90;999.90;;;;;;;25.96;52.85;102353.66;15802733;28;20549;-57
2021/09/02 10:46:35;;;;;;;1999.90;999.90;;;;;;;25.76;51.92;102349.44;15805750;28;20060;-61
2021/09/02 10:54:09;;;;;;;1999.90;999.90;;;;;;;26.08;51.92;102343.91;15750580;28;20052;-55
2021/09/02 11:01:42;;;;;;;1999.90;999.90;;;;;;;26.08;51.50;102353.31;15739357;28;20110;-57
2021/09/02 11:09:28;;;;;;;1999.90;999.90;;;;;;;26.36;51.53;102358.31;15736734;28;20055;-59
2021/09/02 11:17:07;;;;;;;1999.90;999.90;;;;;;;26.39;50.28;102351.03;15738696;28;20045;-62
2021/09/02 11:24:42;;;;;;;1999.90;999.90;;;;;;;26.19;49.01;102351.31;15738001;28;20037;-56
2021/09/02 11:32:15;;;;;;;1999.90;999.90;;;;;;;26.46;48.45;102346.13;15737500;28;20083;-58
2021/09/02 11:39:50;;;;;;;1999.90;999.90;;;;;;;28.10;46.76;102351.06;15736448;28;20501;-60
2021/09/02 11:47:24;;;;;;;1999.90;999.90;;;;;;;27.98;46.52;102337.19;15735742;28;20128;-58
2021/09/02 11:54:56;;;;;;;1999.90;999.90;;;;;;;28.77;45.19;102343.41;15799556;28;20124;-60
2021/09/02 12:02:30;;;;;;;1999.90;999.90;;;;;;;27.91;47.05;102343.75;15809537;28;20040;-59
2021/09/02 12:10:04;;;;;;;1999.90;999.90;;;;;;;28.64;45.78;102329.50;15809598;28;20390;-62
2021/09/02 12:17:38;;;;;;;1999.90;999.90;;;;;;;28.42;43.96;102322.25;15810118;28;20105;-61
2021/09/02 12:25:12;;;;;;;1999.90;999.90;;;;;;;29.43;41.65;102315.38;15809413;28;20048;-59
2021/09/02 12:32:46;;;;;;;1999.90;999.90;;;;;;;30.59;40.78;102311.53;15808554;28;20048;-58
2021/09/02 12:40:20;;;;;;;1999.90;999.90;;;;;;;30.73;39.58;102322.03;15808874;28;20044;-59
2021/09/02 12:48:01;;;;;;;1999.90;999.90;;;;;;;33.49;35.60;102318.81;15789760;28;20125;-60
2021/09/02 12:55:34;;;;;;;1999.90;999.90;;;;;;;31.99;37.08;102309.94;15744395;28;20040;-58
2021/09/02 13:03:09;;;;;;;1999.90;999.90;;;;;;;32.59;37.92;102305.72;15744434;28;20044;-59
2021/09/02 13:10:41;;;;;;;1999.90;999.90;;;;;;;35.52;31.55;102309.59;15744777;28;20093;-62
2021/09/02 13:18:25;;;;;;;1999.90;999.90;;;;;;;32.25;35.84;102285.06;15748687;28;20049;-61
2021/09/02 13:25:59;;;;;;;1999.90;999.90;;;;;;;30.22;40.65;102283.66;15745906;28;20044;-58
2021/09/02 13:33:33;;;;;;;1999.90;999.90;;;;;;;28.09;44.83;102269.09;15744372;28;20061;-60
2021/09/02 13:41:05;;;;;;;1999.90;999.90;;;;;;;27.38;46.12;102263.56;15743409;28;20056;-59
2021/09/02 13:48:39;;;;;;;1999.90;999.90;;;;;;;26.83;47.12;102250.50;15748243;28;20452;-59
2021/09/02 13:56:14;;;;;;;1999.90;999.90;;;;;;;26.66;47.88;102243.50;15805174;28;20044;-61
2021/09/02 14:04:01;;;;;;;1999.90;999.90;;;;;;;25.54;50.57;102242.72;15805886;28;20260;-59
2021/09/02 14:11:33;;;;;;;1999.90;999.90;;;;;;;25.29;51.43;102240.50;15804467;28;20409;-59
2021/09/02 14:19:38;;;;;;;1999.90;999.90;;;;;;;24.92;52.94;102219.81;15804490;28;20064;-62
2021/09/02 14:27:21;;;;;;;1999.90;999.90;;;;;;;24.86;53.17;102215.69;15801422;28;20052;-62
2021/09/02 14:34:55;;;;;;;1999.90;999.90;;;;;;;24.26;55.50;102222.41;15802828;28;20136;-58
2021/09/02 14:42:27;;;;;;;1999.90;999.90;;;;;;;24.12;55.08;102217.38;15802794;28;20040;-59
2021/09/02 14:50:19;;;;;;;1999.90;999.90;;;;;;;24.01;55.04;102216.44;15782918;28;20041;-62
2021/09/02 14:57:51;;;;;;;;;;;;;;;24.07;55.01;102200.66;15738997;28;20079;-62
2021/09/02 15:05:25;;;;;;;1999.90;999.90;;;;;;;23.74;55.01;102200.63;15739271;28;19928;-61
2021/09/02 15:12:57;;;;;;;1999.90;999.90;;;;;;;23.53;55.18;102207.66;15738206;28;20048;-57
2021/09/02 15:20:39;;;;;;;1999.90;999.90;;;;;;;23.37;54.50;102194.84;15737171;28;20045;-62
2021/09/02 15:28:12;;;;;;;1999.90;999.90;;;;;;;23.34;55.13;102185.00;15737428;28;20051;-60
2021/09/02 15:35:53;;;;;;;1999.90;999.90;;;;;;;23.54;55.74;102192.22;15750299;28;20222;-59
2021/09/02 15:43:29;;;;;;;1999.90;999.90;;;;;;;23.26;55.94;102186.97;15748327;28;20036;-59
2021/09/02 15:51:19;;;;;;;1999.90;999.90;;;;;;;22.94;56.21;102182.81;15776930;28;20040;-58
2021/09/02 15:59:13;;;;;;;1999.90;999.90;;;;;;;23.02;56.21;102170.31;15812515;28;20051;-61
2021/09/02 16:06:49;;;;;;;1999.90;999.90;;;;;;;22.89;56.45;102171.75;15819333;28;20489;-60
2021/09/02 16:14:25;;;;;;;1999.90;999.90;;;;;;;22.67;56.90;102167.72;15827066;28;20055;-56
2021/09/02 16:22:02;;;;;;;1999.90;999.90;;;;;;;22.12;58.88;102165.13;15809861;28;20044;-56
2021/09/02 16:29:36;;;;;;;1999.90;999.90;;;;;;;22.17;57.91;102156.28;15810945;28;20040;-61
2021/09/02 16:37:11;;;;;;;1999.90;999.90;;;;;;;22.23;58.60;102133.25;15809325;28;20044;-59
2021/09/02 16:44:43;;;;;;;1999.90;999.90;;;;;;;22.02;58.94;102134.47;15808472;28;20693;-60
2021/09/02 16:52:24;;;;;;;1999.90;999.90;;;;;;;22.15;60.52;102118.88;15771144;28;20044;-56
2021/09/02 17:00:23;;;;;;;1999.90;999.90;;;;;;;22.01;60.12;102114.94;15746056;28;20123;-57
2021/09/02 17:08:00;;;;;;;1999.90;999.90;;;;;;;21.77;60.21;102111.25;15745896;28;20049;-57
2021/09/02 17:15:32;;;;;;;1999.90;999.90;;;;;;;21.54;61.70;102099.84;15745534;28;20083;-59
2021/09/02 17:23:15;;;;;;;1999.90;999.90;;;;;;;21.35;62.61;102091.31;15744701;28;20098;-58
2021/09/02 17:30:48;;;;;;;1999.90;999.90;;;;;;;21.24;63.14;102088.22;15743638;28;20101;-60
2021/09/02 17:38:22;;;;;;;1999.90;999.90;;;;;;;21.08;63.50;102078.97;15744908;28;20049;-58
2021/09/02 17:45:54;;;;;;;1999.90;999.90;;;;;;;20.82;64.25;102088.13;15743224;28;20421;-59
2021/09/02 17:53:28;;;;;;;1999.90;999.90;;;;;;;20.68;64.97;102091.44;15789595;28;20052;-60
2021/09/02 18:01:00;;;;;;;1999.90;999.90;;;;;;;20.42;65.41;102106.19;15787984;28;20044;-59
2021/09/02 18:08:34;;;;;;;1999.90;999.90;;;;;;;20.22;66.30;102103.63;15803634;28;20044;-58
2021/09/02 18:16:06;;;;;;;1999.90;999.90;;;;;;;19.98;66.84;102105.44;15803447;28;20791;-61
2021/09/02 18:23:39;;;;;;;1999.90;999.90;;;;;;;19.83;67.29;102104.25;15802884;28;20066;-59
2021/09/02 18:31:12;;;;;;;1999.90;999.90;;;;;;;19.65;68.25;102102.09;15801531;28;20447;-60
2021/09/02 18:38:46;;;;;;;1999.90;999.90;;;;;;;19.47;68.27;102101.56;15802509;28;20474;-59
2021/09/02 18:46:20;;;;;;;1999.90;999.90;;;;;;;19.28;69.00;102102.25;15801092;28;20369;-60
2021/09/02 18:53:54;;;;;;;1999.90;999.90;;;;;;;19.13;69.64;102088.84;15755431;28;20495;-55
2021/09/02 19:01:32;;;;;;;1999.90;999.90;;;;;;;19.01;70.41;102090.53;15738162;28;20582;-57
2021/09/02 19:09:06;;;;;;;1999.90;999.90;;;;;;;18.87;70.55;102100.59;15746167;28;20040;-59
2021/09/02 19:16:39;;;;;;;1999.90;999.90;;;;;;;18.75;69.95;102092.94;15749451;28;20071;-60
2021/09/02 19:24:13;;;;;;;;;;;;;;;18.70;70.09;102084.69;15732866;28;20036;-61
2021/09/02 19:31:47;;;;;;;1999.90;999.90;;;;;;;18.26;71.35;102076.00;15750240;28;19928;-59
2021/09/02 19:39:21;;;;;;;1999.90;999.90;;;;;;;18.15;71.63;102077.63;15749962;28;20049;-61
2021/09/02 19:46:53;;;;;;;1999.90;999.90;;;;;;;18.07;71.73;102075.72;15749420;28;20036;-59
2021/09/02 19:54:27;;;;;;;1999.90;999.90;;;;;;;17.81;72.79;102064.72;15805278;28;20504;-59
2021/09/02 20:02:02;;;;;;;1999.90;999.90;;;;;;;17.79;72.60;102059.44;15810795;28;20055;-61
2021/09/02 20:09:39;;;;;;;1999.90;999.90;;;;;;;17.70;72.47;102060.72;15811299;28;20059;-58
2021/09/02 20:17:12;;;;;;;1999.90;999.90;;;;;;;17.52;72.72;102045.97;15810750;28;20054;-58
2021/09/02 20:24:47;;;;;;;1999.90;999.90;;;;;;;17.46;72.85;102036.06;15811556;28;20058;-59
2021/09/02 20:32:20;;;;;;;1999.90;999.90;;;;;;;17.26;72.96;102041.38;15809690;28;20119;-59
2021/09/02 20:40:02;;;;;;;1999.90;999.90;;;;;;;17.29;72.66;102040.69;15808945;28;20401;-58
2021/09/02 20:47:35;;;;;;;1999.90;999.90;;;;;;;17.14;72.86;102041.34;15809996;28;20052;-59
2021/09/02 20:55:10;;;;;;;1999.90;999.90;;;;;;;16.92;73.71;102042.53;15748875;28;20045;-62
2021/09/02 21:02:45;;;;;;;1999.90;999.90;;;;;;;16.85;73.36;102047.88;15744928;28;20040;-58
2021/09/02 21:10:20;;;;;;;1999.90;999.90;;;;;;;16.80;73.09;102041.66;15745755;28;20045;-58
2021/09/02 21:17:54;;;;;;;1999.90;999.90;;;;;;;16.59;73.77;102042.44;15744254;28;20079;-65
2021/09/02 21:25:32;;;;;;;1999.90;999.90;;;;;;;16.55;73.41;102046.25;15743155;28;20032;-59
2021/09/02 21:33:07;;;;;;;1999.90;999.90;;;;;;;16.50;73.85;102041.66;15743548;28;20056;-59
2021/09/02 21:40:44;;;;;;;1999.90;999.90;;;;;;;16.35;73.85;102040.22;15742163;28;20045;-60
2021/09/02 21:48:20;;;;;;;1999.90;999.90;;;;;;;16.25;74.12;102048.25;15745943;28;20046;-59
2021/09/02 21:55:54;;;;;;;1999.90;999.90;;;;;;;16.11;74.36;102040.06;15804920;28;20083;-59
2021/09/02 22:03:27;;;;;;;1999.90;999.90;;;;;;;16.08;74.02;102035.94;15803672;28;20119;-59
2021/09/02 22:11:04;;;;;;;1999.90;999.90;;;;;;;16.00;73.75;102035.97;15802084;28;20047;-60
2021/09/02 22:18:40;;;;;;;1999.90;999.90;;;;;;;15.80;73.99;102041.16;15803281;28;20130;-59
2021/09/02 22:26:16;;;;;;;1999.90;999.90;;;;;;;15.79;74.33;102031.09;15802765;28;20560;-59
2021/09/02 22:33:53;;;;;;;1999.90;999.90;;;;;;;15.65;74.48;102035.28;15802888;28;20044;-58
2021/09/02 22:41:27;;;;;;;1999.90;999.90;;;;;;;15.56;74.10;102032.47;15801441;28;20086;-61
2021/09/02 22:49:02;;;;;;;1999.90;999.90;;;;;;;15.57;74.08;102023.69;15773743;28;20080;-62
2021/09/02 22:56:36;;;;;;;1999.90;999.90;;;;;;;15.49;73.90;102015.25;15720882;28;20140;-62
2021/09/02 23:04:08;;;;;;;1999.90;999.90;;;;;;;15.31;73.92;102004.03;15763301;28;20114;-56
2021/09/02 23:11:50;;;;;;;1999.90;999.90;;;;;;;15.17;74.41;101994.97;15801362;28;20048;-58
2021/09/02 23:19:24;;;;;;;1999.90;999.90;;;;;;;15.04;74.24;101993.19;15801552;28;20466;-57
2021/09/02 23:26:59;;;;;;;1999.90;999.90;;;;;;;15.08;74.28;101979.28;15769858;28;20032;-59
2021/09/02 23:34:32;;;;;;;1999.90;999.90;;;;;;;15.00;74.11;101976.13;15773071;28;20490;-58
2021/09/02 23:42:07;;;;;;;1999.90;999.90;;;;;;;14.86;73.98;101967.06;15736941;28;20048;-59
2021/09/02 23:49:41;;;;;;;1999.90;999.90;;;;;;;14.58;74.75;101968.56;15797903;28;20102;-57
2021/09/02 23:57:15;;;;;;;1999.90;999.90;;;;;;;14.60;74.72;101961.47;15809325;28;20070;-58
